Time;durP1;ratioP1;P1;durP2;ratioP2;P2;SDS_P1;SDS_P2;PMS_P1;PMS_P2;Temp;Humidity;BMP_temperature;BMP_pressure;BME280_temperature;BME280_humidity;BME280_pressure;Samples;Min_cycle;Max_cycle;Signal;HPM_P1;HPM_P2
2023/09/22 00:00:15;;;;;;;3.42;1.35;;;;;;;17.14;78.75;99237.69;4067715;29;20468;-60
2023/09/22 00:02:20;;;;;;;3.38;1.10;;;;;;;17.21;77.91;99247.06;4067599;29;20048;-60
2023/09/22 00:04:23;;;;;;;0.85;0.60;;;;;;;17.14;78.02;99239.44;4067665;29;20504;-60
2023/09/22 00:06:26;;;;;;;3.90;1.00;;;;;;;17.10;77.71;99244.81;4058585;29;20579;-60
2023/09/22 00:08:29;;;;;;;2.80;1.13;;;;;;;17.02;77.64;99252.06;4067643;29;20111;-60
2023/09/22 00:10:33;;;;;;;3.45;1.00;;;;;;;17.01;77.78;99250.38;4066911;29;20067;-60
2023/09/22 00:12:36;;;;;;;1.30;1.00;;;;;;;17.00;77.99;99237.28;4067746;29;20071;-60
2023/09/22 00:14:39;;;;;;;1.63;0.90;;;;;;;16.98;78.04;99237.34;4066581;29;20051;-60
2023/09/22 00:16:42;;;;;;;2.22;0.90;;;;;;;16.89;77.92;99233.25;4067483;29;20048;-60
2023/09/22 00:18:47;;;;;;;2.20;1.17;;;;;;;16.87;78.05;99231.53;4067803;29;20048;-60
2023/09/22 00:20:49;;;;;;;2.83;1.08;;;;;;;16.89;77.95;99237.59;4067975;29;20041;-60
2023/09/22 00:22:52;;;;;;;3.42;0.90;;;;;;;16.91;78.21;99235.81;4067742;29;20076;-60
2023/09/22 00:24:54;;;;;;;2.13;1.00;;;;;;;16.81;77.88;99235.19;4067726;29;20051;-60
2023/09/22 00:26:57;;;;;;;1.75;0.90;;;;;;;16.91;77.31;99239.28;4067054;29;20063;-60
2023/09/22 00:29:00;;;;;;;1.80;1.02;;;;;;;16.84;77.66;99244.75;4066331;29;20046;-60
2023/09/22 00:31:03;;;;;;;3.08;0.88;;;;;;;16.78;77.78;99248.41;4066694;29;20068;-59
2023/09/22 00:33:06;;;;;;;4.68;1.20;;;;;;;16.74;77.94;99244.16;4066697;29;20138;-60
2023/09/22 00:35:12;;;;;;;3.70;0.88;;;;;;;16.65;77.49;99252.34;4066103;29;20040;-60
2023/09/22 00:37:14;;;;;;;4.30;0.95;;;;;;;16.58;77.66;99243.78;4066655;29;20040;-60
2023/09/22 00:39:17;;;;;;;1.77;0.95;;;;;;;16.62;77.99;99239.28;4066662;29;20134;-60
2023/09/22 00:41:21;;;;;;;2.78;1.00;;;;;;;16.70;77.77;99245.16;4066491;29;20052;-60
2023/09/22 00:43:23;;;;;;;2.30;0.85;;;;;;;16.71;77.66;99250.38;4067592;29;20048;-60
2023/09/22 00:45:26;;;;;;;2.13;1.17;;;;;;;16.73;77.94;99248.56;4065334;29;20048;-60
2023/09/22 00:47:30;;;;;;;0.98;0.60;;;;;;;16.65;77.78;99244.47;4067739;29;20095;-60
2023/09/22 00:49:35;;;;;;;2.15;1.00;;;;;;;16.69;77.89;99233.81;4066523;29;20044;-60
2023/09/22 00:51:40;;;;;;;2.30;1.00;;;;;;;16.59;77.36;99229.75;4067468;29;20134;-60
2023/09/22 00:53:43;;;;;;;1.97;1.03;;;;;;;16.54;77.60;99226.41;4066374;29;20052;-60
2023/09/22 00:55:49;;;;;;;3.17;0.98;;;;;;;16.61;77.87;99229.72;4067252;29;20359;-60
2023/09/22 00:57:53;;;;;;;1.50;0.90;;;;;;;16.64;77.85;99238.34;4066619;29;20307;-60
2023/09/22 00:59:57;;;;;;;1.77;0.90;;;;;;;16.69;77.45;99231.19;4066477;29;20047;-60
2023/09/22 01:02:00;;;;;;;1.77;1.00;;;;;;;16.73;77.30;99232.81;4064063;29;20096;-60
2023/09/22 01:04:04;;;;;;;3.40;1.17;;;;;;;16.72;77.56;99248.63;4060344;29;20076;-60
2023/09/22 01:06:09;;;;;;;;;;;;;;;16.65;77.52;99255.81;4050668;29;20043;-60
2023/09/22 01:08:13;;;;;;;3.92;1.10;;;;;;;16.67;77.62;99245.25;4082105;29;19923;-60
2023/09/22 01:10:16;;;;;;;1.88;0.80;;;;;;;16.72;77.32;99246.00;4066252;29;20033;-59
2023/09/22 01:12:20;;;;;;;4.45;1.98;;;;;;;16.65;77.49;99247.94;4066236;29;20048;-60
2023/09/22 01:14:23;;;;;;;3.83;1.10;;;;;;;16.66;77.51;99247.03;4066305;29;20052;-60
2023/09/22 01:16:26;;;;;;;1.10;1.00;;;;;;;16.69;77.16;99261.81;4050350;29;20060;-60
2023/09/22 01:18:29;;;;;;;6.30;1.00;;;;;;;16.64;76.97;99266.34;4066255;29;20051;-60
2023/09/22 01:20:39;;;;;;;3.80;1.08;;;;;;;16.53;77.40;99282.41;4067660;29;20036;-59
2023/09/22 01:22:43;;;;;;;1.38;1.00;;;;;;;16.52;77.80;99284.16;4063403;29;20064;-60
2023/09/22 01:24:46;;;;;;;4.05;0.88;;;;;;;16.55;77.29;99277.97;4065839;29;20419;-59
2023/09/22 01:26:49;;;;;;;1.55;0.85;;;;;;;16.51;77.12;99289.47;4065959;29;20051;-59
2023/09/22 01:28:52;;;;;;;1.95;1.00;;;;;;;16.57;77.04;99284.03;4064293;29;20496;-60
2023/09/22 01:30:55;;;;;;;6.15;0.95;;;;;;;16.56;76.87;99274.47;4061699;29;20059;-60
2023/09/22 01:32:58;;;;;;;1.83;0.95;;;;;;;16.38;77.00;99295.06;4059315;29;20051;-60
2023/09/22 01:35:01;;;;;;;3.97;1.10;;;;;;;16.27;77.12;99296.28;4056012;29;20043;-59
2023/09/22 01:37:07;;;;;;;4.13;1.00;;;;;;;16.37;77.68;99293.34;4065737;29;20040;-59
2023/09/22 01:39:16;;;;;;;2.80;1.02;;;;;;;16.35;77.31;99295.16;4067563;29;20055;-59
2023/09/22 01:41:19;;;;;;;4.82;1.10;;;;;;;16.43;76.92;99268.69;4069839;29;20044;-59
2023/09/22 01:43:22;;;;;;;4.78;0.82;;;;;;;16.40;76.58;99243.41;4068759;29;20040;-60
2023/09/22 01:45:25;;;;;;;1.67;1.02;;;;;;;16.39;76.63;99244.31;4069278;29;20469;-60
2023/09/22 01:47:28;;;;;;;2.47;1.00;;;;;;;16.42;76.90;99256.47;4065605;29;20040;-60
2023/09/22 01:49:32;;;;;;;1.55;0.80;;;;;;;16.40;77.05;99271.41;4068374;29;20055;-60
2023/09/22 01:51:38;;;;;;;1.75;1.02;;;;;;;16.31;77.26;99282.16;4069695;29;20058;-59
2023/09/22 01:53:41;;;;;;;1.42;0.88;;;;;;;16.40;77.69;99287.16;4052261;29;20131;-60
2023/09/22 01:55:46;;;;;;;0.98;0.82;;;;;;;16.37;77.37;99282.84;4066214;29;20090;-60
2023/09/22 01:57:50;;;;;;;3.58;1.15;;;;;;;16.38;77.11;99288.94;4061418;29;20048;-59
2023/09/22 01:59:52;;;;;;;1.70;1.13;;;;;;;16.38;77.61;99283.69;4068428;29;20051;-59
2023/09/22 02:01:55;;;;;;;5.20;1.27;;;;;;;16.39;77.35;99296.78;4069074;29;20044;-60
2023/09/22 02:03:58;;;;;;;1.90;1.10;;;;;;;16.44;76.88;99295.78;4082766;23;20142;-60
2023/09/22 02:06:05;;;;;;;3.53;1.00;;;;;;;16.42;76.94;99290.59;4061251;29;20039;-58
2023/09/22 02:08:10;;;;;;;5.55;0.93;;;;;;;16.34;77.08;99276.81;4067582;29;20052;-57
2023/09/22 02:10:13;;;;;;;2.22;1.10;;;;;;;16.41;76.53;99262.63;4074836;29;20066;-58
2023/09/22 02:12:19;;;;;;;;;;;;;;;16.20;76.35;99238.75;4076627;29;20047;-57
2023/09/22 02:14:22;;;;;;;2.95;1.10;;;;;;;16.18;76.91;99218.72;4051544;29;19927;-57
2023/09/22 02:16:25;;;;;;;1.83;1.23;;;;;;;16.22;76.97;99205.47;4046597;29;20036;-58
2023/09/22 02:18:28;;;;;;;2.38;1.20;;;;;;;16.21;77.07;99203.75;4043793;29;20064;-57
2023/09/22 02:20:31;;;;;;;3.28;1.10;;;;;;;16.22;76.91;99215.09;4050699;29;20493;-57
2023/09/22 02:22:35;;;;;;;1.67;1.08;;;;;;;16.24;77.53;99218.53;4050334;29;20611;-57
2023/09/22 02:24:39;;;;;;;2.42;1.00;;;;;;;16.26;77.13;99236.84;4041125;29;20045;-58
2023/09/22 02:26:42;;;;;;;5.10;0.93;;;;;;;16.29;76.75;99229.75;4049336;29;20044;-57
2023/09/22 02:28:51;;;;;;;1.50;0.88;;;;;;;16.29;76.93;99245.47;4051471;29;20056;-58
2023/09/22 02:30:53;;;;;;;1.35;0.95;;;;;;;16.27;77.37;99249.91;4065637;29;20467;-58
2023/09/22 02:32:56;;;;;;;3.70;1.00;;;;;;;16.27;76.77;99244.69;4067937;29;20063;-57
2023/09/22 02:34:58;;;;;;;5.95;1.20;;;;;;;16.29;77.10;99257.75;4052180;29;20511;-58
2023/09/22 02:37:00;;;;;;;1.45;0.80;;;;;;;16.39;76.26;99244.31;4051510;29;20507;-58
2023/09/22 02:39:06;;;;;;;5.60;1.30;;;;;;;16.29;76.17;99237.63;4050178;29;20048;-58
2023/09/22 02:41:09;;;;;;;1.77;1.10;;;;;;;16.31;76.30;99234.94;4048020;29;20144;-58
2023/09/22 02:43:13;;;;;;;1.98;0.98;;;;;;;16.28;76.46;99235.03;4048982;29;20127;-58
2023/09/22 02:45:16;;;;;;;2.08;1.00;;;;;;;16.22;77.07;99238.69;4043673;29;20041;-58
2023/09/22 02:47:19;;;;;;;1.83;0.98;;;;;;;16.15;77.32;99251.13;4045304;29;20051;-60
2023/09/22 02:49:23;;;;;;;2.35;1.17;;;;;;;16.13;77.73;99252.06;4061203;29;20036;-58
2023/09/22 02:51:26;;;;;;;1.83;0.93;;;;;;;16.13;77.64;99273.03;4045236;29;20049;-58
2023/09/22 02:53:30;;;;;;;1.75;1.00;;;;;;;16.12;77.58;99287.06;4046774;29;20037;-57
2023/09/22 02:55:33;;;;;;;3.22;0.88;;;;;;;16.14;77.43;99290.50;4045977;29;20044;-58
2023/09/22 02:57:36;;;;;;;2.13;0.90;;;;;;;16.16;77.42;99289.53;4043369;29;20429;-58
2023/09/22 02:59:39;;;;;;;2.28;0.82;;;;;;;16.10;77.23;99288.88;4049335;29;20029;-58
2023/09/22 03:01:43;;;;;;;1.85;1.00;;;;;;;16.12;76.96;99292.28;4061180;29;20040;-58
2023/09/22 03:03:46;;;;;;;;;;;;;;;16.02;77.58;99289.94;4059674;29;20054;-58
2023/09/22 03:05:49;;;;;;;2.20;0.95;;;;;;;15.91;77.16;99281.50;4061443;29;19958;-58
2023/09/22 03:07:58;;;;;;;0.73;0.73;;;;;;;15.91;77.71;99278.88;4062935;29;20043;-58
2023/09/22 03:10:00;;;;;;;2.25;0.88;;;;;;;16.05;77.11;99276.75;4043862;29;20041;-58
2023/09/22 03:12:04;;;;;;;3.97;1.00;;;;;;;16.04;77.51;99272.38;4060219;29;20087;-58
2023/09/22 03:14:08;;;;;;;3.30;0.87;;;;;;;16.13;76.97;99270.44;4061993;29;20078;-58
2023/09/22 03:16:10;;;;;;;4.25;1.17;;;;;;;16.15;77.38;99268.59;4058527;29;20066;-58
2023/09/22 03:18:15;;;;;;;3.20;1.38;;;;;;;16.23;76.93;99264.88;4061884;29;20047;-58
2023/09/22 03:20:18;;;;;;;4.47;0.93;;;;;;;16.10;76.92;99265.28;4048956;29;20036;-57
2023/09/22 03:22:22;;;;;;;4.25;1.20;;;;;;;15.95;77.72;99275.28;4047135;29;20044;-58
2023/09/22 03:24:25;;;;;;;2.97;1.45;;;;;;;16.00;78.49;99262.91;4046774;29;20416;-58
2023/09/22 03:26:29;;;;;;;2.28;1.20;;;;;;;16.08;77.53;99246.97;4045754;29;20072;-58
2023/09/22 03:28:31;;;;;;;4.70;1.23;;;;;;;16.08;78.20;99248.72;4062384;29;20504;-58
2023/09/22 03:30:34;;;;;;;3.65;1.15;;;;;;;16.03;78.67;99261.94;4059216;29;20523;-58
2023/09/22 03:32:39;;;;;;;3.15;1.20;;;;;;;16.11;78.25;99272.25;4060806;29;20530;-58
2023/09/22 03:34:46;;;;;;;3.33;1.02;;;;;;;16.07;78.17;99267.97;4047903;29;20051;-58
2023/09/22 03:36:50;;;;;;;2.58;1.50;;;;;;;16.12;78.26;99264.34;4058987;29;20043;-58
2023/09/22 03:38:54;;;;;;;4.03;1.15;;;;;;;16.10;78.10;99279.22;4046872;29;20037;-58
2023/09/22 03:41:00;;;;;;;1.85;1.20;;;;;;;16.07;79.18;99292.44;4046320;29;20065;-58
2023/09/22 03:43:04;;;;;;;3.03;1.10;;;;;;;16.02;79.76;99302.19;4061755;29;20044;-58
2023/09/22 03:45:07;;;;;;;3.08;1.40;;;;;;;16.08;79.79;99311.63;4049414;29;20064;-58
2023/09/22 03:47:10;;;;;;;1.65;1.10;;;;;;;16.21;78.62;99310.41;4047861;29;20492;-58
2023/09/22 03:49:12;;;;;;;3.33;1.10;;;;;;;16.23;78.93;99317.31;4062265;29;20200;-58
2023/09/22 03:51:17;;;;;;;2.65;1.00;;;;;;;16.23;79.05;99326.97;4059884;29;20109;-58
2023/09/22 03:53:20;;;;;;;3.67;1.27;;;;;;;16.23;78.82;99321.72;4061064;29;20103;-58
2023/09/22 03:55:23;;;;;;;6.32;1.40;;;;;;;16.26;78.97;99323.41;4029475;29;20147;-57
2023/09/22 03:57:27;;;;;;;1.25;1.00;;;;;;;16.26;78.85;99319.00;4059147;29;20048;-58
2023/09/22 03:59:30;;;;;;;5.15;1.42;;;;;;;16.26;79.30;99321.63;4046431;29;20048;-57
2023/09/22 04:01:33;;;;;;;4.72;1.42;;;;;;;16.29;78.44;99328.56;4042687;29;20151;-58
2023/09/22 04:03:36;;;;;;;3.42;1.45;;;;;;;16.19;79.23;99322.69;4041964;29;20096;-58
2023/09/22 04:05:40;;;;;;;3.65;1.48;;;;;;;16.29;78.61;99318.06;4061629;29;20052;-58
2023/09/22 04:07:44;;;;;;;2.43;1.27;;;;;;;16.24;78.72;99307.72;4059050;29;20043;-58
2023/09/22 04:09:47;;;;;;;2.95;1.63;;;;;;;16.21;78.98;99297.31;4045744;29;20127;-58
2023/09/22 04:11:50;;;;;;;2.60;1.30;;;;;;;16.11;79.42;99290.59;4046451;29;20064;-58
2023/09/22 04:13:53;;;;;;;4.60;2.08;;;;;;;16.19;79.31;99283.34;4061400;29;20135;-58
2023/09/22 04:15:59;;;;;;;5.43;1.50;;;;;;;16.15;79.47;99279.09;4059212;29;20122;-57
2023/09/22 04:18:03;;;;;;;3.33;2.03;;;;;;;16.03;79.66;99278.56;4046230;29;20559;-58
2023/09/22 04:20:07;;;;;;;4.45;2.33;;;;;;;16.10;79.67;99273.13;4045474;29;20043;-58
2023/09/22 04:22:12;;;;;;;3.35;2.15;;;;;;;16.07;79.97;99283.72;4049379;29;20036;-58
2023/09/22 04:24:20;;;;;;;3.72;2.50;;;;;;;16.11;79.71;99286.19;4046886;29;20119;-58
2023/09/22 04:26:27;;;;;;;3.90;2.28;;;;;;;16.09;79.99;99292.38;4043525;29;20269;-58
2023/09/22 04:28:30;;;;;;;6.53;2.55;;;;;;;16.10;80.13;99274.00;4046812;29;20459;-57
2023/09/22 04:30:37;;;;;;;4.60;2.13;;;;;;;16.11;79.52;99282.72;4044524;29;20117;-58
2023/09/22 04:32:41;;;;;;;5.13;3.30;;;;;;;16.08;79.51;99288.91;4044398;29;20043;-58
2023/09/22 04:34:44;;;;;;;6.03;3.90;;;;;;;16.11;79.28;99290.59;4044881;29;20053;-58
2023/09/22 04:36:47;;;;;;;10.88;4.00;;;;;;;16.13;79.83;99300.13;4043922;29;20050;-58
2023/09/22 04:38:50;;;;;;;6.07;3.17;;;;;;;16.19;79.78;99294.72;4045138;29;20067;-57
2023/09/22 04:40:58;;;;;;;7.68;3.28;;;;;;;16.20;79.62;99282.47;4043660;29;20045;-57
2023/09/22 04:43:02;;;;;;;6.85;4.05;;;;;;;16.24;79.29;99281.47;4045287;29;20083;-58
2023/09/22 04:45:09;;;;;;;6.43;3.47;;;;;;;16.22;79.02;99294.63;4047832;29;20411;-57
2023/09/22 04:47:12;;;;;;;7.97;3.45;;;;;;;16.23;79.24;99301.59;4045664;29;20068;-58
2023/09/22 04:49:15;;;;;;;7.45;4.05;;;;;;;16.28;79.08;99304.09;4046320;29;20092;-57
2023/09/22 04:51:19;;;;;;;6.40;3.65;;;;;;;16.28;79.16;99306.72;4050009;29;20076;-58
2023/09/22 04:53:24;;;;;;;6.75;3.10;;;;;;;16.21;78.95;99300.78;4047955;29;20052;-58
2023/09/22 04:55:29;;;;;;;;;;;;;;;16.16;79.52;99299.19;4043840;29;20062;-57
2023/09/22 04:57:33;;;;;;;5.22;3.78;;;;;;;16.21;79.39;99299.94;4042438;29;20245;-58
2023/09/22 04:59:36;;;;;;;8.10;4.18;;;;;;;16.23;79.66;99308.59;4046807;29;20045;-57
2023/09/22 05:01:39;;;;;;;9.15;3.47;;;;;;;16.29;78.85;99310.19;4058194;29;20109;-58
2023/09/22 05:03:43;;;;;;;8.20;3.05;;;;;;;16.36;78.56;99312.59;4042409;29;20572;-58
2023/09/22 05:05:46;;;;;;;4.32;2.38;;;;;;;16.30;78.63;99331.13;4045202;29;20139;-58
2023/09/22 05:07:50;;;;;;;6.05;1.77;;;;;;;16.30;78.07;99331.13;4043665;29;20052;-57
2023/09/22 05:09:54;;;;;;;3.53;1.80;;;;;;;16.23;78.16;99347.94;4043541;29;20048;-60
2023/09/22 05:11:57;;;;;;;4.28;1.73;;;;;;;16.18;78.24;99355.09;4047233;29;20044;-59
2023/09/22 05:14:03;;;;;;;4.40;1.90;;;;;;;16.14;78.23;99363.94;4045772;29;20068;-59
2023/09/22 05:16:08;;;;;;;4.03;1.90;;;;;;;16.13;78.43;99356.94;4045891;29;20041;-59
2023/09/22 05:18:13;;;;;;;;;;;;;;;16.16;78.04;99351.63;4048609;29;20037;-59
2023/09/22 05:20:20;;;;;;;3.83;1.73;;;;;;;16.21;77.89;99340.13;4048890;29;20034;-59
2023/09/22 05:22:23;;;;;;;3.28;1.80;;;;;;;16.19;78.02;99341.03;4044111;29;20041;-59
2023/09/22 05:24:26;;;;;;;3.47;1.70;;;;;;;16.11;78.30;99343.88;4050108;29;20048;-59
2023/09/22 05:26:29;;;;;;;5.07;1.60;;;;;;;16.10;78.76;99351.78;4046139;29;20048;-59
2023/09/22 05:28:32;;;;;;;2.30;1.65;;;;;;;16.03;79.14;99351.06;4047574;29;20297;-59
2023/09/22 05:30:38;;;;;;;1.45;1.25;;;;;;;16.07;78.93;99357.97;4051097;29;20043;-59
2023/09/22 05:32:43;;;;;;;4.45;1.50;;;;;;;16.09;78.55;99344.81;4047746;29;20044;-59
2023/09/22 05:34:46;;;;;;;2.05;1.55;;;;;;;16.06;79.09;99332.66;4062302;29;20048;-59
2023/09/22 05:36:49;;;;;;;3.05;1.35;;;;;;;16.10;79.05;99333.44;4050302;29;20540;-60
2023/09/22 05:38:53;;;;;;;4.05;1.63;;;;;;;16.13;79.09;99331.59;4044133;29;20048;-59
2023/09/22 05:40:56;;;;;;;2.17;1.30;;;;;;;16.15;78.85;99339.41;4044827;29;20052;-59
2023/09/22 05:42:59;;;;;;;5.57;1.38;;;;;;;16.18;78.96;99347.22;4047080;29;20037;-59
2023/09/22 05:45:03;;;;;;;4.35;1.58;;;;;;;16.16;78.70;99341.13;4047563;29;20041;-59
2023/09/22 05:47:07;;;;;;;3.00;1.50;;;;;;;16.27;77.71;99333.00;4047889;29;20036;-59
2023/09/22 05:49:14;;;;;;;3.22;1.40;;;;;;;16.15;78.07;99356.03;4048129;29;20068;-60
2023/09/22 05:51:17;;;;;;;1.38;1.17;;;;;;;16.13;78.50;99372.69;4044828;29;20033;-59
2023/09/22 05:53:20;;;;;;;4.00;1.52;;;;;;;16.08;78.38;99364.06;4050242;29;20048;-59
2023/09/22 05:55:23;;;;;;;4.60;1.38;;;;;;;16.16;78.36;99369.97;4046712;29;20497;-59
2023/09/22 05:57:26;;;;;;;3.90;1.30;;;;;;;16.04;78.48;99379.03;4051607;29;20051;-59
2023/09/22 05:59:29;;;;;;;2.55;1.52;;;;;;;16.11;78.59;99390.22;4049291;29;20104;-59
2023/09/22 06:01:32;;;;;;;7.07;1.42;;;;;;;16.14;78.45;99384.91;4047582;29;20043;-59
2023/09/22 06:03:37;;;;;;;6.57;1.50;;;;;;;16.13;78.83;99388.41;4050319;29;20393;-59
2023/09/22 06:05:40;;;;;;;4.70;1.70;;;;;;;16.17;78.58;99400.56;4048944;29;20044;-59
2023/09/22 06:07:42;;;;;;;4.30;1.60;;;;;;;16.18;79.08;99404.91;4045975;29;20036;-59
2023/09/22 06:09:45;;;;;;;1.70;1.30;;;;;;;16.28;78.51;99405.50;4047782;29;20464;-59
2023/09/22 06:11:49;;;;;;;3.08;1.50;;;;;;;16.15;78.55;99403.22;4048353;29;20159;-59
2023/09/22 06:13:52;;;;;;;2.67;1.30;;;;;;;16.11;78.78;99395.47;4044281;29;20147;-59
2023/09/22 06:15:55;;;;;;;3.38;1.25;;;;;;;16.15;78.07;99394.47;4047442;29;20040;-59
2023/09/22 06:17:58;;;;;;;1.63;1.20;;;;;;;16.01;78.38;99393.06;4047235;29;20128;-59
2023/09/22 06:20:08;;;;;;;4.35;1.35;;;;;;;16.02;78.54;99386.09;4046042;29;20127;-59
2023/09/22 06:22:11;;;;;;;3.30;1.75;;;;;;;16.08;78.76;99387.66;4048219;29;20544;-59
2023/09/22 06:24:14;;;;;;;3.83;1.50;;;;;;;16.11;78.50;99390.22;4048166;29;20064;-60
2023/09/22 06:26:17;;;;;;;3.65;1.30;;;;;;;16.13;78.48;99393.66;4047355;29;20044;-59
2023/09/22 06:28:20;;;;;;;3.03;1.20;;;;;;;16.19;77.95;99401.34;4049544;29;20496;-59
2023/09/22 06:30:23;;;;;;;4.28;1.48;;;;;;;16.30;77.81;99404.56;4046465;29;20056;-59
2023/09/22 06:32:26;;;;;;;3.67;1.20;;;;;;;16.07;78.48;99420.03;4047882;29;20040;-60
2023/09/22 06:34:29;;;;;;;3.15;1.20;;;;;;;16.09;78.44;99424.34;4045302;29;20048;-59
2023/09/22 06:36:34;;;;;;;1.45;1.00;;;;;;;16.15;78.07;99428.56;4046858;29;20083;-60
2023/09/22 06:38:37;;;;;;;2.85;1.13;;;;;;;16.15;77.54;99423.31;4049591;29;20558;-60
2023/09/22 06:40:42;;;;;;;4.80;1.33;;;;;;;16.19;77.27;99417.97;4048706;29;20047;-60
2023/09/22 06:42:45;;;;;;;3.92;1.23;;;;;;;16.28;77.36;99422.13;4045395;29;20060;-60
2023/09/22 06:44:48;;;;;;;2.67;1.27;;;;;;;16.31;76.86;99421.16;4049607;29;20045;-60
2023/09/22 06:46:51;;;;;;;2.83;1.58;;;;;;;16.29;77.07;99415.94;4047826;29;20108;-60
2023/09/22 06:48:55;;;;;;;5.18;1.23;;;;;;;16.33;77.35;99412.34;4044982;29;20147;-60
2023/09/22 06:50:59;;;;;;;3.67;1.23;;;;;;;16.30;77.30;99415.06;4049692;29;20037;-60
2023/09/22 06:53:03;;;;;;;4.30;1.42;;;;;;;16.36;77.13;99414.91;4047874;29;20076;-60
2023/09/22 06:55:08;;;;;;;4.97;1.30;;;;;;;16.32;77.12;99417.66;4044115;29;20055;-59
2023/09/22 06:57:11;;;;;;;2.78;1.08;;;;;;;16.32;77.51;99415.88;4045588;29;20068;-60
2023/09/22 06:59:14;;;;;;;4.25;1.55;;;;;;;16.33;77.23;99433.34;4048010;29;20044;-60
2023/09/22 07:01:17;;;;;;;2.35;0.95;;;;;;;16.34;77.60;99440.31;4046349;29;20041;-60
2023/09/22 07:03:20;;;;;;;1.25;1.02;;;;;;;16.40;77.65;99424.41;4052935;29;20049;-60
2023/09/22 07:05:24;;;;;;;3.45;1.25;;;;;;;16.50;76.90;99437.28;4049143;29;20109;-60
2023/09/22 07:07:27;;;;;;;3.03;1.00;;;;;;;16.48;76.49;99437.31;4047320;29;20076;-59
2023/09/22 07:09:31;;;;;;;3.45;1.27;;;;;;;16.36;76.99;99432.41;4043551;29;20116;-59
2023/09/22 07:11:39;;;;;;;1.75;0.90;;;;;;;16.35;77.28;99447.28;4046342;29;20055;-60
2023/09/22 07:13:42;;;;;;;4.50;1.20;;;;;;;16.39;77.80;99453.31;4047669;29;20052;-60
2023/09/22 07:15:45;;;;;;;3.17;1.10;;;;;;;16.50;77.76;99455.63;4044936;29;20128;-60
2023/09/22 07:17:48;;;;;;;1.10;0.90;;;;;;;16.58;77.41;99458.94;4047470;29;20052;-59
2023/09/22 07:19:52;;;;;;;3.55;0.90;;;;;;;16.59;77.18;99458.03;4049081;29;20045;-59
2023/09/22 07:21:55;;;;;;;2.63;1.23;;;;;;;16.64;76.53;99456.13;4042513;29;20045;-59
2023/09/22 07:23:58;;;;;;;5.20;1.20;;;;;;;16.50;76.63;99466.13;4046126;29;20504;-59
2023/09/22 07:26:03;;;;;;;5.20;1.20;;;;;;;16.43;76.78;99467.19;4046676;29;20097;-60
2023/09/22 07:28:07;;;;;;;3.50;1.13;;;;;;;16.42;77.45;99466.34;4047923;29;20120;-60
2023/09/22 07:30:11;;;;;;;3.20;1.48;;;;;;;16.49;77.13;99469.69;4052460;29;20044;-60
2023/09/22 07:32:15;;;;;;;2.33;1.25;;;;;;;16.50;77.14;99467.00;4051194;29;20040;-60
2023/09/22 07:34:18;;;;;;;1.90;0.95;;;;;;;16.62;77.03;99459.69;4052813;29;20040;-59
2023/09/22 07:36:20;;;;;;;4.07;1.42;;;;;;;16.64;76.78;99468.41;4052542;29;20049;-59
2023/09/22 07:38:23;;;;;;;2.55;1.50;;;;;;;16.70;76.54;99463.84;4052895;29;20067;-60
2023/09/22 07:40:27;;;;;;;5.78;1.30;;;;;;;16.62;77.28;99465.81;4052967;29;20424;-59
2023/09/22 07:42:31;;;;;;;3.88;1.30;;;;;;;16.66;76.75;99464.84;4050574;29;20048;-59
2023/09/22 07:44:34;;;;;;;3.75;1.52;;;;;;;16.55;76.98;99456.38;4047598;29;20056;-60
2023/09/22 07:46:37;;;;;;;2.38;1.23;;;;;;;16.76;76.62;99447.06;4046509;29;20044;-60
2023/09/22 07:48:40;;;;;;;3.58;1.30;;;;;;;16.74;76.35;99449.72;4060156;29;20047;-60
2023/09/22 07:50:43;;;;;;;2.90;1.00;;;;;;;16.65;76.61;99447.38;4046764;29;20123;-60
2023/09/22 07:52:46;;;;;;;4.30;1.20;;;;;;;16.70;76.75;99448.09;4044405;29;20040;-60
2023/09/22 07:54:49;;;;;;;4.30;1.30;;;;;;;16.66;75.74;99443.84;4043739;29;20041;-60
2023/09/22 07:56:52;;;;;;;4.80;1.80;;;;;;;16.64;76.06;99445.63;4045061;29;20481;-59
2023/09/22 07:58:57;;;;;;;7.60;1.20;;;;;;;16.77;75.81;99451.41;4045593;29;20040;-60
2023/09/22 08:01:15;;;;;;;2.60;1.20;;;;;;;16.81;75.75;99457.47;4044266;29;20045;-59
2023/09/22 08:03:18;;;;;;;1.98;1.10;;;;;;;16.87;75.35;99465.16;4042492;29;20041;-57
2023/09/22 08:05:22;;;;;;;2.22;1.10;;;;;;;16.92;75.54;99469.41;4076789;23;20417;-59
2023/09/22 08:07:27;;;;;;;3.80;1.13;;;;;;;17.01;75.51;99477.91;4062427;29;20044;-59
2023/09/22 08:09:29;;;;;;;3.60;1.35;;;;;;;17.04;74.84;99483.09;4061383;29;20063;-59
2023/09/22 08:11:32;;;;;;;3.22;1.20;;;;;;;16.93;74.61;99493.91;4064413;29;20475;-59
2023/09/22 08:13:46;;;;;;;2.35;1.35;;;;;;;17.03;74.60;99497.13;4061333;29;20051;-59
2023/09/22 08:15:51;;;;;;;3.38;1.00;;;;;;;17.01;74.30;99502.44;4061087;29;20479;-59
2023/09/22 08:17:56;;;;;;;;;;;;;;;16.94;74.60;99495.63;4062302;29;20036;-59
2023/09/22 08:19:58;;;;;;;4.18;1.40;;;;;;;16.92;74.46;99494.78;4062198;29;20014;-59
2023/09/22 08:22:01;;;;;;;5.95;1.08;;;;;;;16.95;74.38;99499.94;4059904;29;20064;-59
2023/09/22 08:24:05;;;;;;;2.88;1.00;;;;;;;17.12;73.70;99493.38;4057008;29;20061;-58
2023/09/22 08:26:08;;;;;;;3.55;0.93;;;;;;;16.91;73.90;99496.56;4060422;29;20056;-58
2023/09/22 08:28:12;;;;;;;3.13;1.20;;;;;;;17.00;74.15;99495.44;4060256;29;20407;-59
2023/09/22 08:30:16;;;;;;;2.90;0.70;;;;;;;17.08;73.54;99493.47;4060286;29;20044;-61
2023/09/22 08:32:20;;;;;;;2.65;0.98;;;;;;;16.94;74.18;99498.25;4062555;29;20046;-61
2023/09/22 08:34:23;;;;;;;3.70;1.10;;;;;;;16.86;74.59;99505.44;4066622;29;20040;-61
2023/09/22 08:36:26;;;;;;;3.80;0.95;;;;;;;16.88;74.24;99503.66;4065182;29;20405;-62
2023/09/22 08:38:29;;;;;;;6.10;1.20;;;;;;;16.92;74.10;99505.28;4065576;29;20048;-62
2023/09/22 08:40:31;;;;;;;3.00;1.02;;;;;;;17.09;74.22;99505.69;4066666;29;20070;-61
2023/09/22 08:42:34;;;;;;;2.80;1.30;;;;;;;17.18;73.17;99499.31;4065804;29;20130;-61
2023/09/22 08:44:37;;;;;;;3.13;1.13;;;;;;;17.33;73.54;99505.03;4058347;29;20044;-60
2023/09/22 08:46:41;;;;;;;3.88;1.30;;;;;;;17.48;73.83;99506.34;4051786;29;20507;-59
2023/09/22 08:48:47;;;;;;;2.75;1.20;;;;;;;17.74;72.90;99505.56;4068818;29;20040;-60
2023/09/22 08:50:51;;;;;;;3.20;0.80;;;;;;;17.80;72.20;99501.00;4070052;29;20111;-60
2023/09/22 08:52:53;;;;;;;4.57;1.48;;;;;;;17.89;72.08;99504.25;4067293;29;20040;-63
2023/09/22 08:54:55;;;;;;;3.72;1.13;;;;;;;17.74;71.04;99495.03;4069065;29;20044;-60
2023/09/22 08:56:58;;;;;;;2.35;0.98;;;;;;;17.79;71.14;99498.41;4069093;29;20109;-62
2023/09/22 08:59:02;;;;;;;2.67;1.02;;;;;;;17.86;71.13;99493.81;4073773;29;20138;-62
2023/09/22 09:01:05;;;;;;;3.70;1.27;;;;;;;17.91;71.50;99491.94;4078383;29;20040;-63
2023/09/22 09:03:09;;;;;;;3.20;0.95;;;;;;;18.01;70.14;99489.88;4072180;29;20503;-62
2023/09/22 09:05:19;;;;;;;2.55;0.68;;;;;;;17.99;69.69;99486.41;4069143;29;20555;-62
2023/09/22 09:07:23;;;;;;;3.20;0.80;;;;;;;17.79;67.67;99491.38;4064006;29;20068;-62
2023/09/22 09:09:26;;;;;;;3.92;1.33;;;;;;;17.74;68.54;99490.66;4069192;29;20096;-61
2023/09/22 09:11:29;;;;;;;2.38;1.25;;;;;;;17.78;68.76;99487.03;4069331;29;20052;-61
2023/09/22 09:13:32;;;;;;;4.28;1.00;;;;;;;17.59;67.94;99489.34;4084811;29;20419;-61
2023/09/22 09:15:45;;;;;;;1.98;0.80;;;;;;;17.73;68.14;99488.09;4081387;29;20407;-61
2023/09/22 09:18:03;;;;;;;2.78;0.93;;;;;;;17.91;68.09;99481.41;4070422;29;20511;-61
2023/09/22 09:20:07;;;;;;;5.97;1.10;;;;;;;18.12;68.92;99474.59;4070507;29;20047;-61
2023/09/22 09:22:12;;;;;;;2.38;1.17;;;;;;;18.33;67.37;99477.44;4069474;29;20456;-61
2023/09/22 09:24:23;;;;;;;1.17;0.88;;;;;;;18.49;67.33;99486.53;4074074;29;20124;-61
2023/09/22 09:26:29;;;;;;;2.22;1.13;;;;;;;18.47;65.77;99485.72;4086096;29;20071;-61
2023/09/22 09:28:33;;;;;;;4.90;1.80;;;;;;;18.43;65.57;99490.22;4073789;29;20040;-61
2023/09/22 09:30:38;;;;;;;2.78;0.98;;;;;;;18.50;65.50;99485.63;4065222;29;20245;-61
2023/09/22 09:32:42;;;;;;;2.05;0.90;;;;;;;18.66;65.37;99475.41;4069986;29;20063;-61
2023/09/22 09:34:45;;;;;;;1.50;0.98;;;;;;;18.72;65.35;99479.59;4069509;29;20036;-61
2023/09/22 09:37:09;;;;;;;4.15;1.38;;;;;;;18.89;65.83;99481.69;4068044;29;20040;-61
2023/09/22 09:39:13;;;;;;;2.00;0.73;;;;;;;18.93;64.41;99478.88;4070357;29;20040;-61
2023/09/22 09:41:20;;;;;;;3.33;1.00;;;;;;;18.75;63.78;99480.38;4070192;29;20496;-61
2023/09/22 09:43:23;;;;;;;2.75;1.15;;;;;;;18.78;63.22;99485.53;4070212;29;20096;-61